Time,TemperatureF,DewpointF,PressureIn,WindDirection,WindDirectionDegrees,WindSpeedMPH,WindSpeedGustMPH,Humidity,HourlyPrecipIn,Conditions,Clouds,dailyrainin,SoftwareType,DateUTC
2013-01-12 00:02:00,55.0,40.0,29.78,West,275,7.0,18.0,57,0.00,,,0.12,,2013-01-12 06:02:00,
2013-01-12 00:12:00,55.0,40.0,29.78,West,275,7.0,18.0,57,0.00,,,0.12,,2013-01-12 06:12:00,
2013-01-12 00:22:00,54.0,35.0,29.80,West,267,3.0,16.0,49,0.00,,,0.12,,2013-01-12 06:22:00,
2013-01-12 00:32:00,52.0,27.0,29.81,WSW,238,3.0,17.0,38,0.00,,,0.12,,2013-01-12 06:32:00,
2013-01-12 00:42:00,52.0,27.0,29.81,WSW,238,3.0,17.0,38,0.00,,,0.12,,2013-01-12 06:42:00,
2013-01-12 00:52:00,50.0,24.0,29.81,West,269,2.0,10.0,36,0.00,,,0.12,,2013-01-12 06:52:00,
2013-01-12 01:02:00,49.0,24.0,29.83,West,261,4.0,13.0,37,0.00,,,0.12,,2013-01-12 07:02:00,
2013-01-12 01:12:00,48.0,24.0,29.85,West,262,3.0,17.0,38,0.00,,,0.12,,2013-01-12 07:12:00,
2013-01-12 01:22:00,48.0,24.0,29.85,West,262,3.0,17.0,38,0.00,,,0.12,,2013-01-12 07:22:00,
2013-01-12 01:32:00,47.0,24.0,29.85,West,259,3.0,14.0,40,0.00,,,0.12,,2013-01-12 07:32:00,
2013-01-12 01:42:00,47.0,24.0,29.85,West,259,3.0,14.0,40,0.00,,,0.12,,2013-01-12 07:42:00,
2013-01-12 01:52:00,47.0,26.0,29.87,WNW,290,1.0,13.0,43,0.00,,,0.12,,2013-01-12 07:52:00,
2013-01-12 02:02:00,44.0,30.0,29.89,West,280,4.0,16.0,58,0.00,,,0.12,,2013-01-12 08:02:00,
2013-01-12 02:11:00,44.0,30.0,29.89,West,280,4.0,16.0,58,0.00,,,0.12,,2013-01-12 08:11:00,
2013-01-12 02:22:00,41.0,31.0,29.91,WNW,287,6.0,11.0,67,0.00,,,0.12,,2013-01-12 08:22:00,
2013-01-12 02:32:00,39.0,31.0,29.92,NW,308,5.0,15.0,72,0.00,,,0.12,,2013-01-12 08:32:00,
2013-01-12 02:42:00,39.0,31.0,29.92,NW,308,5.0,15.0,72,0.00,,,0.12,,2013-01-12 08:42:00,
2013-01-12 02:52:00,36.0,29.0,29.93,West,279,4.0,15.0,76,0.00,,,0.12,,2013-01-12 08:52:00,
2013-01-12 03:02:00,35.0,29.0,29.94,West,275,8.0,14.0,78,0.00,,,0.12,,2013-01-12 09:02:00,
2013-01-12 03:12:00,35.0,29.0,29.94,West,275,8.0,14.0,78,0.00,,,0.12,,2013-01-12 09:12:00,
2013-01-12 03:22:00,34.0,28.0,29.96,WNW,292,7.0,16.0,78,0.00,,,0.12,,2013-01-12 09:22:00,
2013-01-12 03:32:00,34.0,28.0,29.97,WNW,301,1.0,13.0,78,0.00,,,0.12,,2013-01-12 09:32:00,
2013-01-12 03:42:00,34.0,28.0,29.97,WNW,301,1.0,13.0,78,0.00,,,0.12,,2013-01-12 09:42:00,
2013-01-12 03:52:00,33.0,27.0,29.98,WNW,298,3.0,14.0,78,0.00,,,0.12,,2013-01-12 09:52:00,
2013-01-12 04:02:00,33.0,27.0,29.99,NW,312,5.0,11.0,78,0.00,,,0.12,,2013-01-12 10:02:00,
2013-01-12 04:12:00,33.0,27.0,29.99,NW,312,5.0,11.0,78,0.00,,,0.12,,2013-01-12 10:12:00,
2013-01-12 04:22:00,32.0,26.0,29.99,WNW,291,5.0,13.0,77,0.00,,,0.12,,2013-01-12 10:22:00,
2013-01-12 04:32:00,31.0,24.0,30.00,NW,314,5.0,11.0,75,0.00,,,0.12,,2013-01-12 10:32:00,
2013-01-12 04:42:00,31.0,24.0,30.00,NW,314,5.0,11.0,75,0.00,,,0.12,,2013-01-12 10:42:00,
2013-01-12 04:52:00,30.0,23.0,30.00,WNW,299,3.0,14.0,74,0.00,,,0.12,,2013-01-12 10:52:00,
2013-01-12 05:02:00,30.0,22.0,30.02,NW,317,4.0,10.0,73,0.00,,,0.12,,2013-01-12 11:02:00,
2013-01-12 05:12:00,30.0,22.0,30.02,NW,317,4.0,10.0,73,0.00,,,0.12,,2013-01-12 11:12:00,
2013-01-12 05:22:00,29.0,20.0,30.02,NW,318,4.0,11.0,70,0.00,,,0.12,,2013-01-12 11:22:00,
2013-01-12 05:32:00,28.0,18.0,30.03,NW,318,7.0,16.0,66,0.00,,,0.12,,2013-01-12 11:32:00,
2013-01-12 05:42:00,28.0,18.0,30.03,NW,318,7.0,16.0,66,0.00,,,0.12,,2013-01-12 11:42:00,
2013-01-12 05:52:00,28.0,18.0,30.02,NW,321,5.0,16.0,67,0.00,,,0.12,,2013-01-12 11:52:00,
2013-01-12 06:03:00,27.0,18.0,30.04,WNW,290,5.0,13.0,67,0.00,,,0.12,,2013-01-12 12:03:00,
2013-01-12 06:12:00,27.0,18.0,30.04,WNW,290,5.0,13.0,67,0.00,,,0.12,,2013-01-12 12:12:00,
2013-01-12 06:22:00,26.0,17.0,30.04,WNW,284,4.0,10.0,68,0.00,,,0.12,,2013-01-12 12:22:00,
2013-01-12 06:32:00,26.0,16.0,30.05,NNW,333,7.0,15.0,65,0.00,,,0.12,,2013-01-12 12:32:00,
2013-01-12 06:42:00,26.0,16.0,30.05,NNW,333,7.0,15.0,65,0.00,,,0.12,,2013-01-12 12:42:00,
2013-01-12 06:52:00,25.0,15.0,30.05,NW,321,4.0,14.0,64,0.00,,,0.12,,2013-01-12 12:52:00,
2013-01-12 07:02:00,25.0,15.0,30.07,NW,323,5.0,14.0,65,0.00,,,0.12,,2013-01-12 13:02:00,
2013-01-12 07:12:00,25.0,15.0,30.07,NW,323,5.0,14.0,65,0.00,,,0.12,,2013-01-12 13:12:00,
2013-01-12 07:22:00,25.0,15.0,30.09,NW,304,3.0,10.0,65,0.00,,,0.12,,2013-01-12 13:22:00,
2013-01-12 07:33:00,25.0,15.0,30.09,NNW,327,2.0,9.0,65,0.00,,,0.12,,2013-01-12 13:33:00,
2013-01-12 07:42:00,25.0,15.0,30.09,NNW,327,2.0,9.0,65,0.00,,,0.12,,2013-01-12 13:42:00,
2013-01-12 07:52:00,24.0,14.0,30.08,NNE,15,4.0,13.0,66,0.00,,,0.12,,2013-01-12 13:52:00,
2013-01-12 08:02:00,24.0,15.0,30.09,WNW,303,3.0,12.0,67,0.00,,,0.12,,2013-01-12 14:02:00,
2013-01-12 08:12:00,24.0,15.0,30.09,WNW,303,3.0,12.0,67,0.00,,,0.12,,2013-01-12 14:12:00,
2013-01-12 08:22:00,24.0,14.0,30.09,NW,321,4.0,15.0,66,0.00,,,0.12,,2013-01-12 14:22:00,
2013-01-12 08:33:00,24.0,14.0,30.09,WNW,300,6.0,11.0,66,0.00,,,0.12,,2013-01-12 14:33:00,
2013-01-12 08:43:00,24.0,14.0,30.09,WNW,300,6.0,11.0,66,0.00,,,0.12,,2013-01-12 14:43:00,
2013-01-12 08:53:00,24.0,14.0,30.09,WNW,300,6.0,11.0,66,0.00,,,0.12,,2013-01-12 14:53:00,
2013-01-12 09:03:00,24.0,12.0,30.11,NNW,336,4.0,18.0,60,0.00,,,0.12,,2013-01-12 15:03:00,
2013-01-12 09:12:00,24.0,12.0,30.11,NNW,336,4.0,18.0,60,0.00,,,0.12,,2013-01-12 15:12:00,
2013-01-12 09:22:00,24.0,12.0,30.13,NNW,344,4.0,14.0,60,0.00,,,0.12,,2013-01-12 15:22:00,
2013-01-12 09:33:00,24.0,12.0,30.14,NW,315,5.0,15.0,59,0.00,,,0.12,,2013-01-12 15:33:00,
2013-01-12 09:43:00,24.0,12.0,30.14,NW,315,5.0,15.0,59,0.00,,,0.12,,2013-01-12 15:43:00,
2013-01-12 09:52:00,24.0,12.0,30.16,North,11,2.0,14.0,59,0.00,,,0.12,,2013-01-12 15:52:00,
2013-01-12 10:03:00,25.0,13.0,30.16,North,5,1.0,7.0,59,0.00,,,0.12,,2013-01-12 16:03:00,
2013-01-12 10:12:00,25.0,13.0,30.16,North,5,1.0,7.0,59,0.00,,,0.12,,2013-01-12 16:12:00,
2013-01-12 10:23:00,25.0,13.0,30.16,North,5,1.0,8.0,59,0.00,,,0.12,,2013-01-12 16:23:00,
2013-01-12 10:33:00,25.0,12.0,30.14,NW,323,2.0,9.0,58,0.00,,,0.12,,2013-01-12 16:33:00,
2013-01-12 10:42:00,25.0,12.0,30.14,NW,323,2.0,9.0,58,0.00,,,0.12,,2013-01-12 16:42:00,
2013-01-12 10:52:00,26.0,14.0,30.14,NNE,14,0.0,7.0,59,0.00,,,0.12,,2013-01-12 16:52:00,
2013-01-12 11:02:00,26.0,14.0,30.14,NW,309,5.0,11.0,59,0.00,,,0.12,,2013-01-12 17:02:00,
2013-01-12 11:12:00,26.0,14.0,30.14,NW,309,5.0,11.0,59,0.00,,,0.12,,2013-01-12 17:12:00,
2013-01-12 11:22:00,26.0,14.0,30.15,WNW,292,2.0,10.0,59,0.00,,,0.12,,2013-01-12 17:22:00,
2013-01-12 11:33:00,26.0,14.0,30.14,NW,309,1.0,11.0,60,0.00,,,0.00,,2013-01-12 17:33:00,
2013-01-12 11:42:00,26.0,14.0,30.14,NW,309,1.0,11.0,60,0.00,,,0.00,,2013-01-12 17:42:00,
2013-01-12 11:53:00,27.0,15.0,30.13,NW,307,3.0,8.0,60,0.00,,,0.00,,2013-01-12 17:53:00,
2013-01-12 12:03:00,27.0,15.0,30.11,WNW,297,5.0,11.0,59,0.00,,,0.00,,2013-01-12 18:03:00,
2013-01-12 12:12:00,27.0,15.0,30.11,WNW,297,5.0,11.0,59,0.00,,,0.00,,2013-01-12 18:12:00,
2013-01-12 12:22:00,27.0,15.0,30.09,North,349,4.0,13.0,59,0.00,,,0.00,,2013-01-12 18:22:00,
2013-01-12 12:33:00,26.0,13.0,30.09,North,355,3.0,13.0,58,0.00,,,0.00,,2013-01-12 18:33:00,
2013-01-12 12:42:00,26.0,13.0,30.09,North,355,3.0,13.0,58,0.00,,,0.00,,2013-01-12 18:42:00,
2013-01-12 12:52:00,26.0,14.0,30.10,NW,322,2.0,11.0,60,0.00,,,0.00,,2013-01-12 18:52:00,
2013-01-12 13:03:00,27.0,15.0,30.10,NW,313,1.0,9.0,61,0.00,,,0.00,,2013-01-12 19:03:00,
2013-01-12 13:12:00,27.0,15.0,30.10,NW,313,1.0,9.0,61,0.00,,,0.00,,2013-01-12 19:12:00,
2013-01-12 13:23:00,26.0,14.0,30.09,NNW,340,5.0,12.0,59,0.00,,,0.00,,2013-01-12 19:23:00,
2013-01-12 13:33:00,27.0,15.0,30.09,NW,323,2.0,10.0,60,0.00,,,0.00,,2013-01-12 19:33:00,
2013-01-12 13:43:00,27.0,15.0,30.09,NW,323,2.0,10.0,60,0.00,,,0.00,,2013-01-12 19:43:00,
2013-01-12 13:52:00,27.0,15.0,30.09,NNW,329,0.0,10.0,60,0.00,,,0.00,,2013-01-12 19:52:00,
2013-01-12 14:03:00,26.0,13.0,30.10,NNW,335,6.0,11.0,58,0.00,,,0.00,,2013-01-12 20:03:00,
2013-01-12 14:12:00,26.0,14.0,30.11,WNW,302,3.0,9.0,59,0.00,,,0.00,,2013-01-12 20:12:00,
2013-01-12 14:22:00,26.0,14.0,30.11,WNW,302,3.0,9.0,59,0.00,,,0.00,,2013-01-12 20:22:00,
2013-01-12 14:33:00,26.0,14.0,30.10,NNW,341,3.0,9.0,60,0.00,,,0.00,,2013-01-12 20:33:00,
2013-01-12 14:42:00,26.0,14.0,30.10,NNW,341,3.0,9.0,60,0.00,,,0.00,,2013-01-12 20:42:00,
2013-01-12 14:53:00,26.0,13.0,30.08,North,355,4.0,12.0,58,0.00,,,0.00,,2013-01-12 20:53:00,
2013-01-12 15:03:00,26.0,13.0,30.08,North,5,3.0,12.0,57,0.00,,,0.00,,2013-01-12 21:03:00,
2013-01-12 15:12:00,25.0,12.0,30.10,North,355,3.0,13.0,57,0.00,,,0.00,,2013-01-12 21:12:00,
2013-01-12 15:22:00,25.0,12.0,30.10,North,355,3.0,13.0,57,0.00,,,0.00,,2013-01-12 21:22:00,
2013-01-12 15:33:00,25.0,12.0,30.09,NW,306,4.0,15.0,56,0.00,,,0.00,,2013-01-12 21:33:00,
2013-01-12 15:42:00,25.0,12.0,30.09,NW,306,4.0,15.0,56,0.00,,,0.00,,2013-01-12 21:42:00,
2013-01-12 15:52:00,25.0,11.0,30.09,NNW,333,9.0,14.0,55,0.00,,,0.00,,2013-01-12 21:52:00,
2013-01-12 16:03:00,25.0,12.0,30.09,NNE,13,3.0,12.0,57,0.00,,,0.00,,2013-01-12 22:03:00,
2013-01-12 16:12:00,25.0,12.0,30.09,NNE,13,3.0,12.0,57,0.00,,,0.00,,2013-01-12 22:12:00,
2013-01-12 16:22:00,25.0,12.0,30.11,North,360,4.0,12.0,57,0.00,,,0.00,,2013-01-12 22:22:00,
2013-01-12 16:33:00,24.0,11.0,30.11,WNW,302,6.0,13.0,57,0.00,,,0.00,,2013-01-12 22:33:00,
2013-01-12 16:43:00,24.0,11.0,30.11,WNW,302,6.0,13.0,57,0.00,,,0.00,,2013-01-12 22:43:00,
2013-01-12 16:52:00,24.0,11.0,30.11,NW,310,4.0,14.0,58,0.00,,,0.00,,2013-01-12 22:52:00,
2013-01-12 17:03:00,24.0,12.0,30.13,North,360,2.0,11.0,59,0.00,,,0.00,,2013-01-12 23:03:00,
2013-01-12 17:12:00,24.0,12.0,30.13,NNW,330,7.0,13.0,59,0.00,,,0.00,,2013-01-12 23:12:00,
2013-01-12 17:22:00,24.0,12.0,30.13,NNW,330,7.0,13.0,59,0.00,,,0.00,,2013-01-12 23:22:00,
2013-01-12 17:33:00,24.0,12.0,30.17,NW,317,4.0,15.0,59,0.00,,,0.00,,2013-01-12 23:33:00,
2013-01-12 17:42:00,24.0,12.0,30.17,NW,317,4.0,15.0,59,0.00,,,0.00,,2013-01-12 23:42:00,
2013-01-12 17:53:00,23.0,11.0,30.17,NW,319,6.0,13.0,59,0.00,,,0.00,,2013-01-12 23:53:00,
2013-01-12 18:03:00,23.0,11.0,30.16,NNW,333,6.0,12.0,59,0.00,,,0.00,,2013-01-13 00:03:00,
2013-01-12 18:12:00,23.0,11.0,30.16,NNW,333,6.0,12.0,59,0.00,,,0.00,,2013-01-13 00:12:00,
2013-01-12 18:22:00,23.0,11.0,30.13,NNW,331,6.0,15.0,59,0.00,,,0.00,,2013-01-13 00:22:00,
2013-01-12 18:33:00,22.0,10.0,30.12,NNW,329,8.0,14.0,60,0.00,,,0.00,,2013-01-13 00:33:00,
2013-01-12 18:42:00,22.0,10.0,30.12,NNW,329,8.0,14.0,60,0.00,,,0.00,,2013-01-13 00:42:00,
2013-01-12 18:52:00,22.0,10.0,30.11,NNW,335,6.0,20.0,58,0.00,,,0.00,,2013-01-13 00:52:00,
2013-01-12 19:02:00,22.0,10.0,30.13,NNW,327,7.0,20.0,59,0.00,,,0.00,,2013-01-13 01:02:00,
2013-01-12 19:12:00,22.0,10.0,30.13,NNW,327,7.0,20.0,59,0.00,,,0.00,,2013-01-13 01:12:00,
2013-01-12 19:22:00,22.0,10.0,30.11,NW,316,6.0,16.0,60,0.00,,,0.00,,2013-01-13 01:22:00,
2013-01-12 19:33:00,21.0,10.0,30.11,North,355,5.0,14.0,63,0.00,,,0.00,,2013-01-13 01:33:00,
2013-01-12 19:43:00,21.0,10.0,30.11,North,355,5.0,14.0,63,0.00,,,0.00,,2013-01-13 01:43:00,
2013-01-12 19:52:00,21.0,11.0,30.14,NW,324,6.0,11.0,64,0.00,,,0.00,,2013-01-13 01:52:00,
2013-01-12 20:02:00,22.0,11.0,30.14,NW,311,2.0,15.0,63,0.00,,,0.00,,2013-01-13 02:02:00,
2013-01-12 20:12:00,22.0,11.0,30.14,NW,311,2.0,15.0,63,0.00,,,0.00,,2013-01-13 02:12:00,
2013-01-12 20:22:00,22.0,11.0,30.13,NNW,344,2.0,11.0,62,0.00,,,0.00,,2013-01-13 02:22:00,
2013-01-12 20:32:00,22.0,11.0,30.14,NW,310,5.0,14.0,63,0.00,,,0.00,,2013-01-13 02:32:00,
2013-01-12 20:42:00,22.0,11.0,30.14,NW,310,5.0,14.0,63,0.00,,,0.00,,2013-01-13 02:42:00,
2013-01-12 20:52:00,21.0,12.0,30.14,NW,314,7.0,19.0,68,0.00,,,0.00,,2013-01-13 02:52:00,
2013-01-12 21:02:00,21.0,12.0,30.15,NW,315,4.0,10.0,69,0.00,,,0.00,,2013-01-13 03:02:00,
2013-01-12 21:12:00,21.0,12.0,30.15,NW,315,4.0,10.0,69,0.00,,,0.00,,2013-01-13 03:12:00,
2013-01-12 21:22:00,21.0,12.0,30.14,NNW,336,2.0,11.0,69,0.00,,,0.00,,2013-01-13 03:22:00,
2013-01-12 21:33:00,21.0,12.0,30.14,NW,314,4.0,13.0,68,0.00,,,0.00,,2013-01-13 03:33:00,
2013-01-12 21:42:00,21.0,12.0,30.14,NW,314,4.0,13.0,68,0.00,,,0.00,,2013-01-13 03:42:00,
2013-01-12 21:52:00,21.0,11.0,30.15,WNW,299,6.0,13.0,66,0.00,,,0.00,,2013-01-13 03:52:00,
2013-01-12 22:02:00,22.0,11.0,30.15,WNW,300,6.0,12.0,63,0.00,,,0.00,,2013-01-13 04:02:00,
2013-01-12 22:12:00,22.0,11.0,30.15,WNW,300,6.0,12.0,63,0.00,,,0.00,,2013-01-13 04:12:00,
2013-01-12 22:22:00,21.0,10.0,30.15,NW,319,3.0,16.0,63,0.00,,,0.00,,2013-01-13 04:22:00,
2013-01-12 22:33:00,21.0,10.0,30.14,NW,322,7.0,15.0,63,0.00,,,0.00,,2013-01-13 04:33:00,
2013-01-12 22:42:00,21.0,10.0,30.14,NW,322,7.0,15.0,63,0.00,,,0.00,,2013-01-13 04:42:00,
2013-01-12 22:52:00,21.0,10.0,30.15,NNW,342,4.0,12.0,63,0.00,,,0.00,,2013-01-13 04:52:00,
2013-01-12 23:03:00,21.0,11.0,30.16,NW,315,3.0,10.0,64,0.00,,,0.00,,2013-01-13 05:03:00,
2013-01-12 23:12:00,21.0,11.0,30.16,NW,315,3.0,10.0,64,0.00,,,0.00,,2013-01-13 05:12:00,
2013-01-12 23:22:00,20.0,10.0,30.15,NW,309,5.0,10.0,64,0.00,,,0.00,,2013-01-13 05:22:00,
2013-01-12 23:32:00,20.0,10.0,30.17,NW,311,1.0,12.0,65,0.00,,,0.00,,2013-01-13 05:32:00,
2013-01-12 23:42:00,20.0,10.0,30.17,NW,311,1.0,12.0,65,0.00,,,0.00,,2013-01-13 05:42:00,
2013-01-12 23:52:00,20.0,10.0,30.17,NW,314,2.0,11.0,65,0.00,,,0.00,,2013-01-13 05:52:00,